Main page
METAR-TAF:

METAR-TAF

Airports :

Antananarivo, Madagascar

Ivato International Airport

latitude: 18-48S, longitude: 047-29E, elevation: 1279 m

Current weather observation

The report was made 34 minutes ago, at 20:30 UTC
Wind 2 kt from variable directions
Temperature 19°C
Humidity 100%
Pressure 1017 hPa
Visibility: 8000 m
Few clouds at a height of 500 ft
Broken clouds at a height of 2000 ft
light rain

METAR: FMMI 202030Z VRB02KT 8000 -RA FEW005 BKN020 19/19 Q1017 NOSIG

Time: 00:04 (21:04 UTC)

Forecast

The report was made 4 hours and 4 minutes ago, at 17:00 UTC
Forecast valid from 20 at 18 UTC to 21 at 24 UTC
Wind 8 kt from the Northwest
Visibility 10 km or more
Scattered clouds at a height of 1700 ft
Scattered clouds at a height of 2000 ft

TAF: FMMI 201700Z 2018/2124 32008KT 9999 SCT017 SCT020

Weather observations and forecasts of more than 4000 airports (METAR and TAF reports).

The available stations are represented by yellow and red dots on the map.

Hover mouse over dot to see the name of the station.

Then click to see weather observations and forecasts.

To change the map : click on the green buttons with a black cross to zoom in, on the green button with a dash to zoom out, or on the green arrows for adjacent maps.


METAR-TAF: